Time;durP1;ratioP1;P1;durP2;ratioP2;P2;SDS_P1;SDS_P2;PMS_P1;PMS_P2;Temp;Humidity;BMP_temperature;BMP_pressure;BME280_temperature;BME280_humidity;BME280_pressure;Samples;Min_cycle;Max_cycle;Signal;HPM_P1;HPM_P2
2024/04/08 00:01:19;;;;;;;4.30;1.67;;;;;;;22.83;46.85;100905.75;4988897;28;20065;-62
2024/04/08 00:03:46;;;;;;;5.38;1.55;;;;;;;22.80;46.42;100920.66;4973992;28;20043;-63
2024/04/08 00:06:12;;;;;;;5.03;1.27;;;;;;;22.80;46.91;100931.59;4974280;28;20037;-63
2024/04/08 00:08:38;;;;;;;6.85;2.80;;;;;;;22.77;47.01;100944.81;4972794;28;20122;-63
2024/04/08 00:11:06;;;;;;;3.08;1.02;;;;;;;22.74;46.96;100940.59;4940832;28;20038;-63
2024/04/08 00:13:37;;;;;;;4.32;0.93;;;;;;;22.75;47.09;100933.25;4974385;28;20489;-63
2024/04/08 00:16:04;;;;;;;3.60;0.98;;;;;;;22.73;46.17;100927.13;4925314;28;20094;-63
2024/04/08 00:18:29;;;;;;;3.58;1.05;;;;;;;22.72;46.09;100920.84;4940777;28;20486;-63
2024/04/08 00:21:02;;;;;;;2.80;1.20;;;;;;;22.71;46.37;100919.16;4989147;28;20041;-63
2024/04/08 00:23:28;;;;;;;5.55;1.05;;;;;;;22.70;46.49;100913.91;4956699;28;20043;-63
2024/04/08 00:25:54;;;;;;;3.10;1.70;;;;;;;22.65;47.08;100916.41;4972778;28;20085;-63
2024/04/08 00:28:20;;;;;;;2.17;1.20;;;;;;;22.62;47.06;100901.25;4973865;28;20047;-63
2024/04/08 00:30:45;;;;;;;3.35;0.90;;;;;;;22.59;47.47;100907.09;4940718;28;20058;-62
2024/04/08 00:33:11;;;;;;;2.22;1.35;;;;;;;22.60;47.65;100906.91;4972677;28;20038;-63
2024/04/08 00:35:36;;;;;;;4.70;2.47;;;;;;;22.59;46.63;100904.38;4972780;28;20383;-62
2024/04/08 00:38:02;;;;;;;1.35;1.00;;;;;;;22.56;47.28;100891.97;4973804;28;20037;-63
2024/04/08 00:40:37;;;;;;;3.88;1.05;;;;;;;22.58;47.38;100892.59;4973845;28;20398;-63
2024/04/08 00:43:04;;;;;;;4.65;1.13;;;;;;;22.59;47.25;100893.47;4988900;28;20046;-64
2024/04/08 00:45:32;;;;;;;2.95;1.00;;;;;;;22.58;47.43;100895.34;4956613;28;20498;-63
2024/04/08 00:47:58;;;;;;;4.07;2.30;;;;;;;22.59;47.51;100893.47;4973592;28;20525;-63
2024/04/08 00:50:23;;;;;;;1.80;1.13;;;;;;;22.57;46.90;100884.63;4940319;28;20035;-63
2024/04/08 00:52:50;;;;;;;3.80;1.08;;;;;;;22.57;47.65;100895.56;4988675;28;20054;-62
2024/04/08 00:55:15;;;;;;;3.40;1.08;;;;;;;22.56;46.75;100886.53;4988641;28;20042;-63
2024/04/08 00:57:41;;;;;;;1.90;1.30;;;;;;;22.55;47.23;100887.59;4956617;28;20396;-63
2024/04/08 01:00:07;;;;;;;6.28;1.33;;;;;;;22.53;47.20;100895.13;4988604;28;20031;-63
2024/04/08 01:02:33;;;;;;;2.75;1.30;;;;;;;22.55;47.73;100893.06;4988799;28;20034;-63
2024/04/08 01:04:58;;;;;;;5.25;1.15;;;;;;;22.52;47.20;100887.16;4992135;28;20033;-64
2024/04/08 01:07:24;;;;;;;4.65;1.30;;;;;;;22.50;47.19;100854.56;4992032;28;20038;-63
2024/04/08 01:09:49;;;;;;;4.57;1.40;;;;;;;22.49;47.38;100844.72;4975821;28;20077;-63
2024/04/08 01:12:15;;;;;;;3.58;1.20;;;;;;;22.50;47.25;100856.50;4992081;28;20117;-63
2024/04/08 01:14:40;;;;;;;4.88;1.00;;;;;;;22.48;47.99;100856.66;4976052;28;20066;-63
2024/04/08 01:17:06;;;;;;;6.63;1.55;;;;;;;22.48;46.98;100859.41;4959751;28;20050;-62
2024/04/08 01:19:32;;;;;;;4.47;2.28;;;;;;;22.47;47.97;100860.44;4976807;28;20034;-63
2024/04/08 01:21:57;;;;;;;3.58;1.38;;;;;;;22.44;47.60;100852.69;4976810;28;20042;-62
2024/04/08 01:24:23;;;;;;;2.78;1.00;;;;;;;22.43;48.06;100845.53;4959609;28;20467;-63
2024/04/08 01:26:48;;;;;;;3.80;1.10;;;;;;;22.44;47.40;100852.69;4991872;28;20085;-63
2024/04/08 01:29:13;;;;;;;1.85;0.90;;;;;;;22.45;47.41;100850.78;4991800;28;20043;-63
2024/04/08 01:31:39;;;;;;;4.75;0.93;;;;;;;22.45;48.04;100843.44;4959365;28;20505;-63
2024/04/08 01:34:04;;;;;;;7.07;1.52;;;;;;;22.45;48.06;100845.31;4991495;28;20462;-63
2024/04/08 01:36:30;;;;;;;3.80;1.58;;;;;;;22.44;47.55;100847.22;4943193;28;20058;-63
2024/04/08 01:38:56;;;;;;;1.38;1.20;;;;;;;22.44;47.41;100841.78;4959253;28;20458;-63
2024/04/08 01:41:21;;;;;;;3.25;1.40;;;;;;;22.42;48.40;100849.31;4991497;28;20034;-63
2024/04/08 01:43:47;;;;;;;2.42;1.20;;;;;;;22.45;48.19;100848.88;4991582;28;20034;-63
2024/04/08 01:46:12;;;;;;;4.65;1.30;;;;;;;22.45;47.55;100846.16;4976539;28;20039;-63
2024/04/08 01:48:38;;;;;;;4.55;1.52;;;;;;;22.43;47.96;100841.97;4942951;28;20409;-63
2024/04/08 01:51:03;;;;;;;2.47;1.40;;;;;;;22.43;48.23;100842.81;4974803;28;20591;-63
2024/04/08 01:53:29;;;;;;;3.28;1.08;;;;;;;22.40;48.10;100845.09;4958903;28;20038;-63
2024/04/08 01:55:54;;;;;;;4.53;1.10;;;;;;;22.40;47.36;100854.13;4976255;28;20071;-63
2024/04/08 01:58:20;;;;;;;7.05;1.13;;;;;;;22.39;48.53;100851.63;4991421;28;20031;-63
2024/04/08 02:00:45;;;;;;;4.65;1.50;;;;;;;22.38;47.58;100848.03;4976547;28;20118;-63
2024/04/08 02:03:11;;;;;;;2.50;1.38;;;;;;;22.38;47.54;100847.19;4958977;28;20050;-63
2024/04/08 02:05:36;;;;;;;3.92;1.55;;;;;;;22.35;47.46;100843.00;4991126;28;20038;-63
2024/04/08 02:08:02;;;;;;;1.20;1.10;;;;;;;22.34;48.58;100835.00;4976316;28;20077;-63
2024/04/08 02:10:27;;;;;;;2.55;1.10;;;;;;;22.34;48.08;100838.56;4991601;28;20498;-64
2024/04/08 02:12:53;;;;;;;4.07;1.50;;;;;;;22.32;47.69;100835.22;4944359;28;20486;-63
2024/04/08 02:15:18;;;;;;;1.92;1.15;;;;;;;22.33;47.47;100823.25;4992420;28;20045;-64
2024/04/08 02:17:44;;;;;;;4.80;1.48;;;;;;;22.34;47.93;100829.53;4992558;28;20106;-63
2024/04/08 02:20:10;;;;;;;2.30;1.17;;;;;;;22.34;48.46;100830.38;4959772;28;20067;-63
2024/04/08 02:22:35;;;;;;;4.00;1.00;;;;;;;22.33;48.40;100828.72;4959761;28;20035;-64
2024/04/08 02:25:02;;;;;;;1.92;1.20;;;;;;;22.32;48.40;100818.84;4990986;28;20042;-63
2024/04/08 02:27:28;;;;;;;3.47;1.30;;;;;;;22.31;48.70;100819.88;4942403;28;20027;-64
2024/04/08 02:29:54;;;;;;;2.30;0.88;;;;;;;22.28;48.79;100817.56;4974560;28;20521;-63
2024/04/08 02:32:20;;;;;;;6.80;1.80;;;;;;;22.31;48.76;100819.03;4975801;28;20467;-63
2024/04/08 02:34:46;;;;;;;4.45;1.40;;;;;;;22.32;48.39;100809.81;4974376;28;20065;-63
2024/04/08 02:37:11;;;;;;;4.85;1.50;;;;;;;22.31;48.09;100805.38;4975965;28;20033;-62
2024/04/08 02:39:36;;;;;;;5.43;1.75;;;;;;;22.31;47.96;100792.56;4974524;28;20045;-64
2024/04/08 02:42:05;;;;;;;5.82;1.33;;;;;;;22.32;48.29;100790.69;4974638;28;20117;-64
2024/04/08 02:44:32;;;;;;;3.42;1.15;;;;;;;22.27;48.55;100785.88;4942619;28;20038;-62
2024/04/08 02:46:58;;;;;;;3.33;1.60;;;;;;;22.27;48.75;100791.31;4974015;28;20038;-63
2024/04/08 02:49:24;;;;;;;2.67;1.35;;;;;;;22.26;48.02;100795.09;4990197;28;20050;-62
2024/04/08 02:51:50;;;;;;;3.67;1.70;;;;;;;22.23;48.30;100787.31;4957853;28;20051;-63
2024/04/08 02:54:15;;;;;;;8.38;1.42;;;;;;;22.22;48.96;100793.81;4941869;28;20058;-63
2024/04/08 02:56:41;;;;;;;2.88;1.10;;;;;;;22.20;48.14;100776.81;4973947;28;20046;-63
2024/04/08 02:59:06;;;;;;;2.92;1.73;;;;;;;22.20;48.82;100782.25;4958041;28;20042;-63
2024/04/08 03:01:31;;;;;;;3.80;1.70;;;;;;;22.18;48.42;100784.38;4974943;28;20035;-62
2024/04/08 03:03:57;;;;;;;3.72;1.33;;;;;;;22.18;48.85;100780.78;4957675;28;20031;-64
2024/04/08 03:06:22;;;;;;;7.32;1.30;;;;;;;22.16;48.22;100782.88;4973526;28;20070;-63
2024/04/08 03:08:48;;;;;;;4.70;1.45;;;;;;;22.18;47.97;100791.72;4974793;28;20034;-62
2024/04/08 03:11:13;;;;;;;3.38;1.15;;;;;;;22.14;49.06;100788.53;4957737;28;20122;-63
2024/04/08 03:13:39;;;;;;;5.07;1.50;;;;;;;22.16;49.13;100794.66;4974623;28;20384;-63
2024/04/08 03:16:05;;;;;;;4.85;1.33;;;;;;;22.17;48.87;100790.84;4957465;28;20038;-63
2024/04/08 03:18:31;;;;;;;6.03;1.40;;;;;;;22.15;48.69;100782.03;4957285;28;20624;-63
2024/04/08 03:21:01;;;;;;;4.47;1.38;;;;;;;22.17;49.25;100779.94;4941486;28;20047;-63
2024/04/08 03:23:27;;;;;;;18.48;2.05;;;;;;;22.17;48.33;100784.56;4957413;28;20384;-63
2024/04/08 03:26:02;;;;;;;4.18;1.60;;;;;;;22.15;49.40;100787.50;4956723;28;20131;-63
2024/04/08 03:28:28;;;;;;;2.55;1.30;;;;;;;22.14;48.27;100785.81;4974425;28;20051;-62
2024/04/08 03:30:53;;;;;;;3.75;1.48;;;;;;;22.14;49.14;100799.44;4941201;28;20026;-63
2024/04/08 03:33:20;;;;;;;5.22;1.70;;;;;;;22.12;49.06;100800.72;4941114;28;20031;-63
2024/04/08 03:35:46;;;;;;;5.70;1.50;;;;;;;22.11;48.90;100802.59;4974474;28;20042;-63
2024/04/08 03:38:11;;;;;;;4.22;1.60;;;;;;;22.13;48.60;100800.53;4941375;28;20035;-63
2024/04/08 03:40:37;;;;;;;4.60;1.67;;;;;;;22.12;49.11;100793.38;4957146;28;20110;-63
2024/04/08 03:43:02;;;;;;;5.00;1.83;;;;;;;22.11;48.68;100788.94;4957141;28;20114;-63
2024/04/08 03:45:28;;;;;;;5.28;1.70;;;;;;;22.14;48.74;100785.81;4974040;28;20511;-63
2024/04/08 03:47:54;;;;;;;2.33;1.50;;;;;;;22.12;48.89;100768.81;4940821;28;20031;-63
2024/04/08 03:50:19;;;;;;;6.53;1.67;;;;;;;22.14;49.07;100757.72;4956881;28;20041;-64
2024/04/08 03:52:48;;;;;;;3.67;1.70;;;;;;;22.13;49.17;100745.94;4974207;28;20521;-63
2024/04/08 03:55:15;;;;;;;3.38;1.40;;;;;;;22.12;48.68;100749.72;4974198;28;20035;-63
2024/04/08 03:57:41;;;;;;;4.88;1.67;;;;;;;22.12;49.72;100738.78;4938920;29;20037;-60
2024/04/08 04:00:07;;;;;;;7.47;1.77;;;;;;;22.10;48.82;100737.31;4937626;29;20122;-63
2024/04/08 04:02:33;;;;;;;1.60;1.20;;;;;;;22.09;49.26;100732.91;4921811;29;20043;-63
2024/04/08 04:04:58;;;;;;;2.42;1.38;;;;;;;22.03;49.42;100729.09;4954809;29;20028;-63
2024/04/08 04:07:23;;;;;;;2.80;1.38;;;;;;;22.02;49.40;100735.63;4954640;29;20042;-63
2024/04/08 04:09:49;;;;;;;3.83;1.17;;;;;;;22.00;48.38;100734.97;4937645;29;20135;-63
2024/04/08 04:12:14;;;;;;;5.00;1.50;;;;;;;21.97;49.13;100713.59;4937143;29;20070;-65
2024/04/08 04:14:40;;;;;;;2.42;1.42;;;;;;;21.86;48.53;100687.69;4921544;29;20082;-63
2024/04/08 04:17:05;;;;;;;6.32;1.73;;;;;;;21.82;48.91;100677.41;4954636;28;20041;-63
2024/04/08 04:19:32;;;;;;;2.47;1.45;;;;;;;21.80;48.41;100691.25;4905692;29;20122;-62
2024/04/08 04:21:57;;;;;;;3.83;1.58;;;;;;;21.75;49.08;100691.03;4954599;29;20039;-63
2024/04/08 04:24:22;;;;;;;7.13;1.33;;;;;;;21.72;49.42;100693.34;4954674;29;20126;-63
2024/04/08 04:26:48;;;;;;;4.30;1.80;;;;;;;21.65;49.37;100693.31;4937551;29;20035;-63
2024/04/08 04:29:13;;;;;;;2.80;1.45;;;;;;;21.59;49.15;100702.28;4937339;29;20063;-62
2024/04/08 04:31:43;;;;;;;2.33;1.25;;;;;;;21.59;49.35;100715.09;4921684;29;20038;-63
2024/04/08 04:34:09;;;;;;;9.30;1.48;;;;;;;21.54;49.25;100714.84;4937301;29;20480;-63
2024/04/08 04:36:35;;;;;;;6.10;1.60;;;;;;;21.53;48.76;100704.97;4937630;28;20031;-61
2024/04/08 04:39:02;;;;;;;6.40;2.15;;;;;;;21.53;48.98;100707.72;4909450;29;20066;-61
2024/04/08 04:41:28;;;;;;;1.45;1.25;;;;;;;21.52;48.94;100708.78;4941037;29;20442;-61
2024/04/08 04:43:53;;;;;;;4.85;1.25;;;;;;;21.48;49.22;100706.44;4925129;29;20095;-61
2024/04/08 04:46:19;;;;;;;3.35;1.05;;;;;;;21.51;48.70;100717.97;4925190;29;20051;-62
2024/04/08 04:48:44;;;;;;;2.70;1.30;;;;;;;21.50;48.85;100716.31;4958270;29;20089;-61
2024/04/08 04:51:10;;;;;;;3.03;1.38;;;;;;;21.51;48.57;100727.00;4931585;28;20047;-62
2024/04/08 04:53:35;;;;;;;6.57;1.75;;;;;;;21.51;49.12;100734.34;4960086;28;20038;-62
2024/04/08 04:56:01;;;;;;;1.85;1.00;;;;;;;21.51;48.60;100731.63;4960187;28;20034;-61
2024/04/08 04:58:26;;;;;;;3.53;1.30;;;;;;;21.53;48.30;100744.00;4960354;28;20058;-61
2024/04/08 05:00:52;;;;;;;6.68;1.40;;;;;;;21.53;48.31;100740.44;4944116;28;20093;-62
2024/04/08 05:03:18;;;;;;;5.75;1.10;;;;;;;21.53;48.20;100749.44;4959964;28;20033;-62
2024/04/08 05:05:54;;;;;;;5.28;1.20;;;;;;;21.52;48.65;100746.94;4944255;28;20043;-62
2024/04/08 05:08:20;;;;;;;5.22;1.45;;;;;;;21.52;48.26;100750.50;4944092;28;20122;-62
2024/04/08 05:10:45;;;;;;;6.00;1.88;;;;;;;21.52;49.12;100758.69;4978108;28;20118;-62
2024/04/08 05:13:11;;;;;;;6.05;1.80;;;;;;;21.51;48.67;100750.69;4929155;28;20495;-62
2024/04/08 05:15:36;;;;;;;2.17;1.35;;;;;;;21.50;48.77;100744.41;4978326;28;20031;-62
2024/04/08 05:18:02;;;;;;;7.38;1.58;;;;;;;21.49;48.27;100726.38;4945084;28;20557;-68
2024/04/08 05:20:29;;;;;;;2.85;1.33;;;;;;;21.46;48.79;100724.91;4960650;28;20043;-61
2024/04/08 05:22:55;;;;;;;2.03;0.98;;;;;;;21.48;48.67;100725.53;4943668;28;20031;-61
2024/04/08 05:25:20;;;;;;;3.38;1.45;;;;;;;21.52;48.44;100720.53;4943753;28;20085;-62
2024/04/08 05:27:46;;;;;;;3.00;1.40;;;;;;;21.54;48.67;100721.16;4943634;28;20061;-63
2024/04/08 05:30:11;;;;;;;13.57;1.92;;;;;;;21.61;48.69;100715.75;4959444;28;20093;-63
2024/04/08 05:32:37;;;;;;;4.88;1.40;;;;;;;21.67;48.28;100717.63;4976870;28;20031;-63
2024/04/08 05:35:02;;;;;;;3.50;1.50;;;;;;;21.73;49.26;100716.81;4943326;28;20031;-63
2024/04/08 05:37:28;;;;;;;2.85;1.80;;;;;;;21.77;48.73;100707.19;4943169;28;20031;-63
2024/04/08 05:39:53;;;;;;;4.50;1.50;;;;;;;21.86;48.77;100705.97;4943208;28;20372;-63
2024/04/08 05:42:19;;;;;;;1.67;0.90;;;;;;;21.98;48.90;100696.16;4959268;28;20407;-63
2024/04/08 05:44:45;;;;;;;4.50;1.80;;;;;;;22.13;48.53;100694.09;4927647;28;20082;-63
2024/04/08 05:47:10;;;;;;;2.30;1.33;;;;;;;22.29;48.82;100693.69;4958678;28;20031;-63
2024/04/08 05:49:36;;;;;;;4.68;1.58;;;;;;;22.44;48.39;100688.03;4942425;28;20576;-63
2024/04/08 05:52:01;;;;;;;7.63;1.92;;;;;;;22.59;48.28;100675.84;4976229;28;20041;-63
2024/04/08 05:54:26;;;;;;;9.10;2.35;;;;;;;22.76;47.59;100687.19;4943000;28;20042;-63
2024/04/08 05:56:52;;;;;;;6.40;1.60;;;;;;;22.90;47.96;100688.88;4963643;28;20035;-63
2024/04/08 05:59:18;;;;;;;2.72;1.77;;;;;;;22.95;47.45;100686.31;4958856;28;20030;-63
2024/04/08 06:01:43;;;;;;;6.10;2.13;;;;;;;23.09;47.32;100695.34;4959032;28;20414;-63
2024/04/08 06:04:10;;;;;;;5.90;1.50;;;;;;;23.17;47.72;100700.59;4943048;28;20081;-63
2024/04/08 06:06:36;;;;;;;4.68;2.17;;;;;;;23.26;47.64;100692.97;4959114;28;20038;-63
2024/04/08 06:09:08;;;;;;;5.05;1.40;;;;;;;23.31;47.89;100691.28;4959339;28;20480;-63
2024/04/08 06:11:34;;;;;;;3.75;1.35;;;;;;;23.38;47.53;100692.16;4942792;28;20096;-63
2024/04/08 06:13:59;;;;;;;4.68;1.30;;;;;;;23.46;46.86;100705.56;4942892;28;20122;-62
2024/04/08 06:16:25;;;;;;;4.43;1.00;;;;;;;23.46;47.63;100699.25;4942754;28;20118;-63
2024/04/08 06:18:50;;;;;;;6.45;1.20;;;;;;;23.49;46.90;100699.66;4974872;28;20406;-63
2024/04/08 06:21:16;;;;;;;5.18;1.63;;;;;;;23.49;46.90;100694.19;4942467;28;20046;-63
2024/04/08 06:23:41;;;;;;;3.35;1.27;;;;;;;23.48;46.90;100711.66;4960028;28;20039;-63
2024/04/08 06:26:07;;;;;;;6.75;2.00;;;;;;;23.44;47.44;100718.63;4958437;28;20117;-63
2024/04/08 06:28:32;;;;;;;2.20;1.02;;;;;;;23.38;47.44;100718.63;4926636;28;20038;-63
2024/04/08 06:30:58;;;;;;;4.75;1.13;;;;;;;23.34;46.45;100711.91;4975064;28;20081;-64
2024/04/08 06:33:24;;;;;;;6.05;3.42;;;;;;;23.30;46.88;100722.41;4974459;28;20495;-63
2024/04/08 06:35:51;;;;;;;2.30;1.38;;;;;;;23.32;47.32;100714.00;4958107;28;20046;-63
2024/04/08 06:38:16;;;;;;;2.45;1.27;;;;;;;23.36;47.27;100693.38;4975515;28;20042;-63
2024/04/08 06:40:42;;;;;;;3.03;1.10;;;;;;;23.38;46.94;100675.75;4974106;28;20023;-63
2024/04/08 06:43:08;;;;;;;5.15;1.40;;;;;;;23.49;46.67;100664.13;4942210;28;20503;-63
2024/04/08 06:45:33;;;;;;;2.17;0.88;;;;;;;23.65;46.70;100660.03;4926246;28;20094;-63
2024/04/08 06:47:59;;;;;;;3.35;1.10;;;;;;;23.80;45.72;100657.00;4958167;28;20031;-63
2024/04/08 06:50:24;;;;;;;3.80;0.98;;;;;;;24.03;46.31;100670.97;4957709;28;20392;-63
2024/04/08 06:52:50;;;;;;;2.65;1.15;;;;;;;24.10;45.63;100680.00;4975248;28;20503;-63
2024/04/08 06:55:16;;;;;;;1.38;0.90;;;;;;;24.15;45.27;100688.38;4957891;28;20039;-63
2024/04/08 06:57:48;;;;;;;2.83;1.00;;;;;;;24.22;45.64;100683.72;4973875;28;20460;-63
2024/04/08 07:00:13;;;;;;;2.95;1.13;;;;;;;24.30;45.22;100697.13;4957320;28;20419;-63
2024/04/08 07:02:40;;;;;;;4.07;1.05;;;;;;;24.40;45.63;100699.41;4974802;28;20035;-63
2024/04/08 07:05:06;;;;;;;4.03;1.00;;;;;;;24.42;45.05;100695.38;4941568;28;20643;-63
2024/04/08 07:07:32;;;;;;;3.13;0.95;;;;;;;24.44;45.03;100709.69;4941904;28;20121;-65
2024/04/08 07:09:57;;;;;;;4.45;1.00;;;;;;;24.43;45.16;100712.66;4957739;28;20070;-64
2024/04/08 07:12:23;;;;;;;2.17;1.27;;;;;;;24.59;44.95;100710.19;4960077;28;20035;-64
2024/04/08 07:14:52;;;;;;;5.38;1.27;;;;;;;24.80;44.78;100696.13;4973581;28;20046;-64
2024/04/08 07:17:21;;;;;;;3.90;1.75;;;;;;;24.99;44.24;100701.63;4941495;28;20047;-64
2024/04/08 07:19:48;;;;;;;2.20;1.13;;;;;;;25.09;44.02;100715.66;4941631;28;20037;-64
2024/04/08 07:22:13;;;;;;;2.40;1.10;;;;;;;25.21;44.21;100717.41;4974810;28;20043;-64
2024/04/08 07:24:40;;;;;;;4.43;1.27;;;;;;;25.33;43.87;100703.78;4974597;28;20050;-64
2024/04/08 07:27:06;;;;;;;3.95;1.10;;;;;;;25.45;43.48;100697.31;4973553;28;20031;-64
2024/04/08 07:29:32;;;;;;;2.38;0.98;;;;;;;25.60;43.18;100693.38;4957064;28;20051;-64
2024/04/08 07:31:58;;;;;;;4.88;1.63;;;;;;;25.69;43.50;100689.22;4957281;28;20038;-64
2024/04/08 07:34:24;;;;;;;6.05;1.50;;;;;;;25.82;43.50;100703.63;4974445;28;20034;-64
2024/04/08 07:36:49;;;;;;;2.85;1.27;;;;;;;26.03;42.87;100688.53;4957299;28;20039;-64
2024/04/08 07:39:15;;;;;;;5.50;1.00;;;;;;;26.23;42.29;100686.38;4941445;28;20093;-64
2024/04/08 07:41:40;;;;;;;1.92;1.23;;;;;;;26.39;41.99;100688.44;4957294;28;20038;-64
2024/04/08 07:44:07;;;;;;;4.63;1.55;;;;;;;26.63;41.58;100678.34;4941113;28;20050;-64
2024/04/08 07:46:32;;;;;;;1.90;0.88;;;;;;;26.81;41.30;100671.88;4974020;28;20042;-64
2024/04/08 07:48:58;;;;;;;3.38;1.20;;;;;;;26.94;41.56;100666.16;4956713;28;20438;-64
2024/04/08 07:51:23;;;;;;;3.92;1.38;;;;;;;27.23;40.48;100667.06;4956745;28;20074;-64
2024/04/08 07:53:49;;;;;;;2.90;1.10;;;;;;;27.38;40.99;100659.16;4972963;28;20526;-65
2024/04/08 07:56:14;;;;;;;1.80;0.82;;;;;;;27.59;40.26;100648.34;4956755;28;20043;-65
2024/04/08 07:58:40;;;;;;;3.75;0.88;;;;;;;27.88;40.46;100643.69;4956673;28;20035;-64
2024/04/08 08:01:07;;;;;;;3.28;0.90;;;;;;;28.10;40.42;100641.06;4956730;28;20070;-64
2024/04/08 08:03:33;;;;;;;3.38;1.25;;;;;;;28.34;39.74;100639.00;4973924;28;20039;-65
2024/04/08 08:05:58;;;;;;;3.78;0.82;;;;;;;28.56;40.04;100649.00;4940738;28;20085;-65
2024/04/08 08:08:25;;;;;;;2.13;0.73;;;;;;;28.72;39.17;100650.13;4974072;28;20511;-64
2024/04/08 08:10:51;;;;;;;3.50;0.88;;;;;;;28.76;38.98;100651.28;4956554;28;20031;-65
2024/04/08 08:13:17;;;;;;;4.03;1.20;;;;;;;28.97;38.95;100647.75;4962315;28;20422;-65
2024/04/08 08:15:42;;;;;;;2.45;0.70;;;;;;;29.18;38.98;100649.69;4963006;28;20039;-65
2024/04/08 08:18:08;;;;;;;3.70;1.65;;;;;;;29.23;38.46;100655.28;4979371;28;20041;-65
2024/04/08 08:20:33;;;;;;;6.38;0.93;;;;;;;29.35;38.41;100649.66;4962981;28;20030;-65
2024/04/08 08:23:00;;;;;;;2.65;0.95;;;;;;;29.28;38.88;100638.81;4980419;28;20093;-65
2024/04/08 08:25:29;;;;;;;1.83;1.02;;;;;;;29.31;38.63;100638.28;4979127;28;20165;-65
2024/04/08 08:27:55;;;;;;;3.50;0.90;;;;;;;29.46;38.07;100629.38;4962817;28;20058;-65
2024/04/08 08:30:20;;;;;;;3.97;1.00;;;;;;;29.62;37.84;100628.44;4979075;28;20085;-65
2024/04/08 08:32:46;;;;;;;2.08;1.13;;;;;;;29.70;37.97;100613.34;4980154;28;20593;-65
2024/04/08 08:35:12;;;;;;;3.38;1.08;;;;;;;29.86;37.57;100607.75;4962804;28;20092;-65
2024/04/08 08:37:38;;;;;;;5.10;1.50;;;;;;;30.06;37.36;100618.16;4980006;28;20039;-66
2024/04/08 08:40:04;;;;;;;2.83;1.67;;;;;;;30.30;37.01;100630.53;4962685;28;20064;-66
2024/04/08 08:42:29;;;;;;;2.92;1.10;;;;;;;30.51;36.72;100637.91;4980169;28;20481;-67
2024/04/08 08:44:57;;;;;;;3.10;0.95;;;;;;;30.45;36.90;100627.94;4980035;28;20035;-65
2024/04/08 08:47:23;;;;;;;2.20;0.80;;;;;;;30.65;36.55;100638.31;4962481;28;20061;-66
2024/04/08 08:49:53;;;;;;;2.20;0.85;;;;;;;30.71;36.01;100653.03;4946763;28;20481;-65
2024/04/08 08:52:19;;;;;;;3.65;1.45;;;;;;;30.83;36.50;100651.72;4962448;28;20054;-65
2024/04/08 08:54:45;;;;;;;1.73;0.98;;;;;;;30.91;35.95;100650.38;4946645;28;20414;-67
2024/04/08 08:57:11;;;;;;;5.28;1.70;;;;;;;30.91;35.89;100653.97;4962641;28;20034;-66
2024/04/08 08:59:37;;;;;;;6.35;1.30;;;;;;;31.04;35.39;100649.94;4946513;28;20049;-66
2024/04/08 09:02:04;;;;;;;4.30;1.00;;;;;;;31.17;35.78;100643.91;4978322;28;20038;-65
2024/04/08 09:04:30;;;;;;;2.58;1.08;;;;;;;31.32;34.98;100641.22;4962366;28;20063;-67
2024/04/08 09:06:55;;;;;;;4.00;1.17;;;;;;;31.43;35.01;100629.09;4963073;28;20035;-66
2024/04/08 09:09:21;;;;;;;4.68;1.00;;;;;;;31.48;35.46;100628.28;4978450;28;20483;-66
2024/04/08 09:11:50;;;;;;;1.55;1.10;;;;;;;31.55;35.35;100634.41;4962442;28;20109;-67
2024/04/08 09:14:16;;;;;;;3.10;1.40;;;;;;;31.68;34.47;100634.75;4978516;28;20043;-67
2024/04/08 09:16:42;;;;;;;3.80;1.23;;;;;;;31.86;34.87;100638.09;4962250;28;20062;-66
2024/04/08 09:19:11;;;;;;;2.63;1.40;;;;;;;31.86;34.01;100643.63;4962281;28;20042;-66
2024/04/08 09:21:36;;;;;;;4.93;1.15;;;;;;;31.86;34.17;100640.84;4945862;28;20138;-66
2024/04/08 09:24:06;;;;;;;4.00;1.58;;;;;;;31.92;34.27;100637.81;4959529;28;20122;-67
2024/04/08 09:26:32;;;;;;;4.57;1.35;;;;;;;31.98;33.99;100633.13;4975335;28;20038;-66
2024/04/08 09:28:58;;;;;;;2.33;1.17;;;;;;;32.06;34.05;100621.53;4959270;28;20560;-66
2024/04/08 09:31:24;;;;;;;2.33;1.02;;;;;;;32.10;34.76;100612.41;4959153;28;20050;-67
2024/04/08 09:33:50;;;;;;;2.53;0.90;;;;;;;32.14;33.51;100609.88;4959128;28;20038;-67
2024/04/08 09:36:17;;;;;;;2.58;1.30;;;;;;;32.14;34.48;100602.41;4959082;28;20015;-67
2024/04/08 09:38:43;;;;;;;3.58;1.25;;;;;;;32.19;34.41;100598.81;4975351;28;20546;-67
2024/04/08 09:41:11;;;;;;;2.13;1.25;;;;;;;32.18;33.88;100581.34;4943085;28;20031;-66
2024/04/08 09:43:39;;;;;;;1.10;0.98;;;;;;;32.40;32.78;100575.50;4959064;28;20482;-65
2024/04/08 09:46:04;;;;;;;3.58;1.25;;;;;;;32.63;33.43;100577.72;4943062;28;20937;-65
2024/04/08 09:48:31;;;;;;;3.00;1.45;;;;;;;33.00;33.19;100593.16;4975001;28;20039;-67
2024/04/08 09:50:58;;;;;;;2.15;1.55;;;;;;;33.57;32.53;100598.19;4958969;28;20035;-66
2024/04/08 09:54:40;;;;;;;6.15;1.40;;;;;;;35.45;30.51;100590.63;5386023;25;20335;-65
2024/04/08 09:57:07;;;;;;;3.70;2.10;;;;;;;35.60;30.21;100590.44;5362785;26;20005;-65
2024/04/08 09:59:35;;;;;;;6.97;1.58;;;;;;;35.45;30.62;100585.06;5299574;26;20009;-67
2024/04/08 10:02:00;;;;;;;3.40;1.50;;;;;;;35.38;31.39;100590.16;5325070;26;20016;-65
2024/04/08 10:04:30;;;;;;;3.38;1.60;;;;;;;35.34;31.10;100597.47;5364714;26;20464;-65
2024/04/08 10:06:56;;;;;;;3.85;1.52;;;;;;;35.38;31.12;100590.16;5364554;26;20012;-66
2024/04/08 10:09:21;;;;;;;10.10;2.60;;;;;;;35.42;30.54;100586.50;5327961;26;20002;-65
2024/04/08 10:11:50;;;;;;;5.85;1.77;;;;;;;35.52;30.27;100574.34;5354973;26;20009;-65
2024/04/08 10:14:16;;;;;;;4.82;1.38;;;;;;;35.56;30.59;100578.25;5362725;26;20011;-65
2024/04/08 10:16:42;;;;;;;6.07;1.30;;;;;;;34.90;31.04;100559.53;5362730;26;20016;-64
2024/04/08 10:19:10;;;;;;;4.03;1.55;;;;;;;34.38;31.52;100565.09;5299179;26;20087;-65
2024/04/08 10:21:37;;;;;;;5.15;1.52;;;;;;;34.21;31.72;100564.69;5356734;26;20037;-65
2024/04/08 10:24:03;;;;;;;3.45;1.67;;;;;;;34.26;31.26;100575.75;5362518;26;20019;-65
2024/04/08 10:26:29;;;;;;;5.13;1.85;;;;;;;34.14;31.12;100564.22;5334058;26;20499;-65
2024/04/08 10:28:55;;;;;;;5.53;2.20;;;;;;;33.84;31.60;100554.94;5362704;26;20472;-67
2024/04/08 10:31:27;;;;;;;4.05;1.88;;;;;;;33.48;31.94;100555.44;5327968;26;20020;-67
2024/04/08 10:33:52;;;;;;;6.57;1.40;;;;;;;33.13;32.21;100573.13;5330705;26;20519;-65
2024/04/08 10:36:18;;;;;;;4.22;1.55;;;;;;;33.18;32.03;100573.09;5362388;26;20004;-66
2024/04/08 10:38:43;;;;;;;5.40;1.98;;;;;;;33.45;31.79;100575.50;5333753;26;20078;-64
2024/04/08 10:41:09;;;;;;;3.05;1.77;;;;;;;33.64;31.54;100579.28;5362715;26;20078;-65
2024/04/08 10:43:35;;;;;;;3.78;1.10;;;;;;;33.41;31.28;100578.00;5333644;26;20051;-65
2024/04/08 10:46:14;;;;;;;4.47;1.10;;;;;;;33.36;31.78;100580.81;5362569;26;20005;-65
2024/04/08 10:48:40;;;;;;;2.97;1.05;;;;;;;32.99;31.90;100586.78;5362486;26;20404;-65
2024/04/08 10:51:09;;;;;;;4.60;2.15;;;;;;;32.86;32.00;100572.66;5364765;26;19997;-65
2024/04/08 10:53:34;;;;;;;3.28;1.65;;;;;;;32.61;32.40;100587.44;5333933;26;20003;-65
2024/04/08 10:56:00;;;;;;;5.15;1.65;;;;;;;32.60;32.01;100589.38;5362313;26;20001;-65
2024/04/08 10:58:25;;;;;;;4.82;1.15;;;;;;;32.53;32.20;100590.72;5333447;26;20332;-64
2024/04/08 11:00:51;;;;;;;3.72;1.60;;;;;;;32.26;32.67;100574.41;5361970;26;20070;-65
2024/04/08 11:03:17;;;;;;;6.07;1.65;;;;;;;31.97;32.51;100563.00;5362194;26;20000;-65
2024/04/08 11:05:43;;;;;;;4.30;1.83;;;;;;;31.68;32.60;100570.19;5319282;26;19997;-64
2024/04/08 11:08:08;;;;;;;5.40;1.75;;;;;;;31.42;33.11;100569.25;5318679;26;20456;-64
2024/04/08 11:10:35;;;;;;;5.13;2.10;;;;;;;31.20;33.25;100562.25;5319032;26;20001;-69
2024/04/08 11:13:01;;;;;;;9.85;1.40;;;;;;;30.99;33.87;100561.38;5348258;26;20001;-64
2024/04/08 11:15:27;;;;;;;4.88;1.65;;;;;;;30.72;33.76;100555.09;5319106;26;20007;-65
2024/04/08 11:17:59;;;;;;;6.60;1.50;;;;;;;30.44;34.19;100559.91;5318416;26;19993;-64
2024/04/08 11:20:28;;;;;;;4.53;1.70;;;;;;;30.13;33.96;100571.78;5347105;26;20089;-64